sensor_id;sensor_type;location;lat;lon;timestamp;pressure;altitude;pressure_sealevel;temperature;humidity
3096;BME280;1558;42.700;23.360;2023-02-28T00:01:41;95788.22;;;5.79;100.00
3096;BME280;1558;42.700;23.360;2023-02-28T00:04:11;95785.22;;;5.86;100.00
3096;BME280;1558;42.700;23.360;2023-02-28T00:06:39;95805.00;;;5.85;100.00
3096;BME280;1558;42.700;23.360;2023-02-28T00:09:08;95809.59;;;5.84;100.00
3096;BME280;1558;42.700;23.360;2023-02-28T00:11:36;95815.72;;;5.85;100.00
3096;BME280;1558;42.700;23.360;2023-02-28T00:14:07;95803.16;;;5.80;100.00
3096;BME280;1558;42.700;23.360;2023-02-28T00:16:35;95803.16;;;5.80;100.00
3096;BME280;1558;42.700;23.360;2023-02-28T00:19:02;95810.69;;;5.78;100.00
3096;BME280;1558;42.700;23.360;2023-02-28T00:21:32;95820.16;;;5.71;100.00
3096;BME280;1558;42.700;23.360;2023-02-28T00:24:00;95822.63;;;5.67;100.00
3096;BME280;1558;42.700;23.360;2023-02-28T00:26:28;95819.59;;;5.74;100.00
3096;BME280;1558;42.700;23.360;2023-02-28T00:28:55;95827.56;;;5.79;100.00
3096;BME280;1558;42.700;23.360;2023-02-28T00:31:23;95830.59;;;5.72;100.00
3096;BME280;1558;42.700;23.360;2023-02-28T00:33:52;95824.13;;;5.73;100.00
3096;BME280;1558;42.700;23.360;2023-02-28T00:36:20;95821.47;;;5.73;100.00
3096;BME280;1558;42.700;23.360;2023-02-28T00:38:49;95829.06;;;5.66;100.00
3096;BME280;1558;42.700;23.360;2023-02-28T00:41:17;95823.69;;;5.66;100.00
3096;BME280;1558;42.700;23.360;2023-02-28T00:43:45;95827.69;;;5.69;100.00
3096;BME280;1558;42.700;23.360;2023-02-28T00:46:13;95827.97;;;5.67;100.00
3096;BME280;1558;42.700;23.360;2023-02-28T00:48:41;95815.72;;;5.61;100.00
3096;BME280;1558;42.700;23.360;2023-02-28T00:51:09;95804.25;;;5.61;100.00
3096;BME280;1558;42.700;23.360;2023-02-28T00:53:37;95806.63;;;5.62;100.00
3096;BME280;1558;42.700;23.360;2023-02-28T00:56:07;95796.88;;;5.71;100.00
3096;BME280;1558;42.700;23.360;2023-02-28T00:58:35;95790.47;;;5.72;100.00
3096;BME280;1558;42.700;23.360;2023-02-28T01:01:03;95801.16;;;5.72;100.00
3096;BME280;1558;42.700;23.360;2023-02-28T01:03:31;95798.19;;;5.74;100.00
3096;BME280;1558;42.700;23.360;2023-02-28T01:05:59;95811.34;;;5.70;100.00
3096;BME280;1558;42.700;23.360;2023-02-28T01:08:27;95814.59;;;5.67;100.00
3096;BME280;1558;42.700;23.360;2023-02-28T01:10:57;95808.81;;;5.60;100.00
3096;BME280;1558;42.700;23.360;2023-02-28T01:13:26;95810.09;;;5.44;100.00
3096;BME280;1558;42.700;23.360;2023-02-28T01:15:55;95801.66;;;5.32;100.00
3096;BME280;1558;42.700;23.360;2023-02-28T01:18:24;95795.22;;;5.33;100.00
3096;BME280;1558;42.700;23.360;2023-02-28T01:20:52;95800.56;;;5.33;100.00
3096;BME280;1558;42.700;23.360;2023-02-28T01:23:21;95803.47;;;5.36;100.00
3096;BME280;1558;42.700;23.360;2023-02-28T01:25:50;95797.19;;;5.27;100.00
3096;BME280;1558;42.700;23.360;2023-02-28T01:28:18;95806.50;;;5.30;100.00
3096;BME280;1558;42.700;23.360;2023-02-28T01:30:49;95794.22;;;5.29;100.00
3096;BME280;1558;42.700;23.360;2023-02-28T01:33:18;95796.31;;;5.32;100.00
3096;BME280;1558;42.700;23.360;2023-02-28T01:35:46;95801.22;;;5.25;100.00
3096;BME280;1558;42.700;23.360;2023-02-28T01:38:14;95794.91;;;5.16;100.00
3096;BME280;1558;42.700;23.360;2023-02-28T01:40:48;95797.59;;;5.16;100.00
3096;BME280;1558;42.700;23.360;2023-02-28T01:43:20;95792.09;;;5.26;100.00
3096;BME280;1558;42.700;23.360;2023-02-28T01:45:51;95806.13;;;5.18;100.00
3096;BME280;1558;42.700;23.360;2023-02-28T01:48:21;95800.75;;;5.18;100.00
3096;BME280;1558;42.700;23.360;2023-02-28T01:50:50;95804.97;;;5.24;100.00
3096;BME280;1558;42.700;23.360;2023-02-28T01:53:32;95815.72;;;5.19;100.00
3096;BME280;1558;42.700;23.360;2023-02-28T01:56:03;95809.28;;;5.20;100.00
3096;BME280;1558;42.700;23.360;2023-02-28T01:58:32;95815.44;;;5.20;100.00
3096;BME280;1558;42.700;23.360;2023-02-28T02:01:02;95801.78;;;5.22;100.00
3096;BME280;1558;42.700;23.360;2023-02-28T02:03:31;95806.84;;;5.23;100.00
3096;BME280;1558;42.700;23.360;2023-02-28T02:05:58;95801.31;;;5.15;100.00
3096;BME280;1558;42.700;23.360;2023-02-28T02:08:28;95800.81;;;5.13;100.00
3096;BME280;1558;42.700;23.360;2023-02-28T02:10:58;95806.22;;;5.08;100.00
3096;BME280;1558;42.700;23.360;2023-02-28T02:13:37;95795.06;;;5.01;100.00
3096;BME280;1558;42.700;23.360;2023-02-28T02:16:23;95797.22;;;4.99;100.00
3096;BME280;1558;42.700;23.360;2023-02-28T02:18:57;95805.50;;;4.97;100.00
3096;BME280;1558;42.700;23.360;2023-02-28T02:22:01;95789.16;;;5.04;100.00
3096;BME280;1558;42.700;23.360;2023-02-28T02:28:04;95795.56;;;5.03;100.00
3096;BME280;1558;42.700;23.360;2023-02-28T02:30:54;95796.31;;;5.08;100.00
3096;BME280;1558;42.700;23.360;2023-02-28T02:33:42;95796.78;;;5.15;100.00
3096;BME280;1558;42.700;23.360;2023-02-28T02:36:18;95810.66;;;5.17;100.00
3096;BME280;1558;42.700;23.360;2023-02-28T02:38:52;95808.72;;;5.23;100.00
3096;BME280;1558;42.700;23.360;2023-02-28T02:41:26;95808.72;;;5.23;100.00
3096;BME280;1558;42.700;23.360;2023-02-28T02:44:01;95807.13;;;5.22;100.00
3096;BME280;1558;42.700;23.360;2023-02-28T02:46:33;95812.22;;;5.18;100.00
3096;BME280;1558;42.700;23.360;2023-02-28T02:49:05;95816.56;;;5.14;100.00
3096;BME280;1558;42.700;23.360;2023-02-28T02:51:36;95816.34;;;5.11;100.00
3096;BME280;1558;42.700;23.360;2023-02-28T02:54:09;95814.63;;;5.20;100.00
3096;BME280;1558;42.700;23.360;2023-02-28T02:56:41;95813.50;;;5.26;100.00
3096;BME280;1558;42.700;23.360;2023-02-28T02:59:13;95820.09;;;5.33;100.00
3096;BME280;1558;42.700;23.360;2023-02-28T03:01:49;95816.63;;;5.33;100.00
3096;BME280;1558;42.700;23.360;2023-02-28T03:04:20;95819.63;;;5.26;100.00
3096;BME280;1558;42.700;23.360;2023-02-28T03:06:51;95828.56;;;5.17;100.00
3096;BME280;1558;42.700;23.360;2023-02-28T03:09:21;95831.41;;;5.25;100.00
3096;BME280;1558;42.700;23.360;2023-02-28T03:11:51;95845.91;;;5.19;100.00
3096;BME280;1558;42.700;23.360;2023-02-28T03:14:25;95840.91;;;5.13;100.00
3096;BME280;1558;42.700;23.360;2023-02-28T03:20:03;95853.06;;;5.00;100.00
3096;BME280;1558;42.700;23.360;2023-02-28T03:22:54;95855.44;;;5.02;100.00
3096;BME280;1558;42.700;23.360;2023-02-28T03:25:33;95846.88;;;5.05;100.00
3096;BME280;1558;42.700;23.360;2023-02-28T03:28:09;95860.69;;;5.12;100.00
3096;BME280;1558;42.700;23.360;2023-02-28T03:30:44;95855.34;;;5.12;100.00
3096;BME280;1558;42.700;23.360;2023-02-28T03:33:17;95859.13;;;5.11;100.00
3096;BME280;1558;42.700;23.360;2023-02-28T03:35:52;95861.78;;;5.11;100.00
3096;BME280;1558;42.700;23.360;2023-02-28T03:38:28;95868.53;;;5.03;100.00
3096;BME280;1558;42.700;23.360;2023-02-28T03:41:02;95860.09;;;5.20;100.00
3096;BME280;1558;42.700;23.360;2023-02-28T03:43:36;95869.38;;;5.27;100.00
3096;BME280;1558;42.700;23.360;2023-02-28T03:46:09;95874.25;;;5.20;100.00
3096;BME280;1558;42.700;23.360;2023-02-28T03:48:43;95870.50;;;5.21;100.00
3096;BME280;1558;42.700;23.360;2023-02-28T03:51:15;95886.31;;;5.18;100.00
3096;BME280;1558;42.700;23.360;2023-02-28T03:53:49;95873.22;;;5.16;100.00
3096;BME280;1558;42.700;23.360;2023-02-28T03:56:20;95871.50;;;5.25;100.00
3096;BME280;1558;42.700;23.360;2023-02-28T03:58:54;95876.09;;;5.25;100.00
3096;BME280;1558;42.700;23.360;2023-02-28T04:01:28;95875.78;;;5.26;100.00
3096;BME280;1558;42.700;23.360;2023-02-28T04:03:58;95879.28;;;5.27;100.00
3096;BME280;1558;42.700;23.360;2023-02-28T04:06:26;95882.34;;;5.39;100.00
3096;BME280;1558;42.700;23.360;2023-02-28T04:08:55;95881.84;;;5.37;100.00
3096;BME280;1558;42.700;23.360;2023-02-28T04:11:29;95876.72;;;5.40;100.00
3096;BME280;1558;42.700;23.360;2023-02-28T04:14:00;95865.97;;;5.45;100.00
3096;BME280;1558;42.700;23.360;2023-02-28T04:16:28;95865.22;;;5.40;100.00
3096;BME280;1558;42.700;23.360;2023-02-28T04:19:02;95870.50;;;5.45;100.00
3096;BME280;1558;42.700;23.360;2023-02-28T04:21:33;95873.13;;;5.50;100.00
3096;BME280;1558;42.700;23.360;2023-02-28T04:24:03;95863.03;;;5.42;100.00
3096;BME280;1558;42.700;23.360;2023-02-28T04:26:32;95869.03;;;5.34;100.00
3096;BME280;1558;42.700;23.360;2023-02-28T04:29:02;95870.16;;;5.28;100.00
3096;BME280;1558;42.700;23.360;2023-02-28T04:31:31;95879.63;;;5.20;100.00
3096;BME280;1558;42.700;23.360;2023-02-28T04:34:06;95877.44;;;5.22;100.00
3096;BME280;1558;42.700;23.360;2023-02-28T04:36:36;95873.69;;;5.23;100.00
3096;BME280;1558;42.700;23.360;2023-02-28T04:39:05;95880.47;;;5.16;100.00
3096;BME280;1558;42.700;23.360;2023-02-28T04:41:33;95880.97;;;5.18;100.00
3096;BME280;1558;42.700;23.360;2023-02-28T04:44:02;95878.00;;;5.19;100.00
3096;BME280;1558;42.700;23.360;2023-02-28T04:46:30;95888.94;;;5.23;100.00
3096;BME280;1558;42.700;23.360;2023-02-28T04:48:57;95888.06;;;5.04;100.00
3096;BME280;1558;42.700;23.360;2023-02-28T04:51:25;95891.28;;;5.01;100.00
3096;BME280;1558;42.700;23.360;2023-02-28T04:53:54;95897.66;;;5.05;100.00
3096;BME280;1558;42.700;23.360;2023-02-28T04:56:23;95901.97;;;5.01;100.00
3096;BME280;1558;42.700;23.360;2023-02-28T04:58:51;95903.38;;;4.93;100.00
3096;BME280;1558;42.700;23.360;2023-02-28T05:01:22;95902.34;;;4.89;100.00
3096;BME280;1558;42.700;23.360;2023-02-28T05:03:53;95893.81;;;4.87;100.00
3096;BME280;1558;42.700;23.360;2023-02-28T05:06:22;95899.34;;;4.96;100.00
3096;BME280;1558;42.700;23.360;2023-02-28T05:08:51;95894.81;;;4.96;100.00
3096;BME280;1558;42.700;23.360;2023-02-28T05:11:21;95894.50;;;4.98;100.00
3096;BME280;1558;42.700;23.360;2023-02-28T05:13:52;95902.78;;;5.01;100.00
3096;BME280;1558;42.700;23.360;2023-02-28T05:16:20;95899.34;;;4.96;100.00
3096;BME280;1558;42.700;23.360;2023-02-28T05:18:48;95898.53;;;4.95;100.00
3096;BME280;1558;42.700;23.360;2023-02-28T05:21:24;95916.31;;;4.81;100.00
3096;BME280;1558;42.700;23.360;2023-02-28T05:23:53;95916.00;;;4.82;100.00
3096;BME280;1558;42.700;23.360;2023-02-28T05:26:21;95919.78;;;4.82;100.00
3096;BME280;1558;42.700;23.360;2023-02-28T05:28:49;95924.34;;;4.76;100.00
3096;BME280;1558;42.700;23.360;2023-02-28T05:31:18;95921.19;;;5.03;100.00
3096;BME280;1558;42.700;23.360;2023-02-28T05:33:46;95931.34;;;5.06;100.00
3096;BME280;1558;42.700;23.360;2023-02-28T05:39:04;95919.13;;;4.95;100.00
3096;BME280;1558;42.700;23.360;2023-02-28T05:44:29;95938.75;;;5.14;100.00
3096;BME280;1558;42.700;23.360;2023-02-28T05:47:15;95936.66;;;5.11;100.00
3096;BME280;1558;42.700;23.360;2023-02-28T05:49:58;95920.19;;;4.99;100.00
3096;BME280;1558;42.700;23.360;2023-02-28T05:52:57;95929.72;;;5.05;100.00
3096;BME280;1558;42.700;23.360;2023-02-28T05:55:25;95944.09;;;5.14;100.00
3096;BME280;1558;42.700;23.360;2023-02-28T05:57:53;95954.81;;;5.09;100.00
3096;BME280;1558;42.700;23.360;2023-02-28T06:00:22;95949.28;;;5.00;100.00
3096;BME280;1558;42.700;23.360;2023-02-28T06:02:51;95960.41;;;5.12;100.00
3096;BME280;1558;42.700;23.360;2023-02-28T06:05:22;95944.56;;;5.21;100.00
3096;BME280;1558;42.700;23.360;2023-02-28T06:07:50;95949.44;;;5.14;100.00
3096;BME280;1558;42.700;23.360;2023-02-28T06:10:19;95931.25;;;4.87;100.00
3096;BME280;1558;42.700;23.360;2023-02-28T06:12:47;95953.75;;;5.10;100.00
3096;BME280;1558;42.700;23.360;2023-02-28T06:15:15;95944.19;;;5.04;100.00
3096;BME280;1558;42.700;23.360;2023-02-28T06:17:44;95948.97;;;5.07;100.00
3096;BME280;1558;42.700;23.360;2023-02-28T06:20:13;95948.13;;;5.11;100.00
3096;BME280;1558;42.700;23.360;2023-02-28T06:22:41;95939.84;;;5.13;100.00
3096;BME280;1558;42.700;23.360;2023-02-28T06:25:09;95951.09;;;5.10;100.00
3096;BME280;1558;42.700;23.360;2023-02-28T06:27:38;95947.06;;;5.12;100.00
3096;BME280;1558;42.700;23.360;2023-02-28T06:30:07;95943.53;;;5.17;100.00
3096;BME280;1558;42.700;23.360;2023-02-28T06:32:35;95947.66;;;5.33;100.00
3096;BME280;1558;42.700;23.360;2023-02-28T06:35:04;95951.72;;;5.25;100.00
3096;BME280;1558;42.700;23.360;2023-02-28T06:37:33;95964.91;;;5.17;100.00
3096;BME280;1558;42.700;23.360;2023-02-28T06:40:01;95967.09;;;5.15;100.00
3096;BME280;1558;42.700;23.360;2023-02-28T06:42:29;95967.63;;;5.12;100.00
3096;BME280;1558;42.700;23.360;2023-02-28T06:44:57;95973.97;;;5.21;100.00
3096;BME280;1558;42.700;23.360;2023-02-28T06:47:25;95965.53;;;5.37;100.00
3096;BME280;1558;42.700;23.360;2023-02-28T06:49:53;95963.53;;;5.53;100.00
3096;BME280;1558;42.700;23.360;2023-02-28T06:52:21;95960.56;;;5.55;100.00
3096;BME280;1558;42.700;23.360;2023-02-28T06:54:50;95959.41;;;5.37;100.00
3096;BME280;1558;42.700;23.360;2023-02-28T06:57:27;95967.34;;;5.42;100.00
3096;BME280;1558;42.700;23.360;2023-02-28T06:59:57;95963.06;;;5.46;100.00
3096;BME280;1558;42.700;23.360;2023-02-28T07:02:27;95955.53;;;5.48;100.00
3096;BME280;1558;42.700;23.360;2023-02-28T07:04:55;95965.34;;;5.58;100.00
3096;BME280;1558;42.700;23.360;2023-02-28T07:07:22;95966.75;;;5.50;100.00
3096;BME280;1558;42.700;23.360;2023-02-28T07:09:52;95970.75;;;5.53;100.00
3096;BME280;1558;42.700;23.360;2023-02-28T07:12:20;95965.91;;;5.55;100.00
3096;BME280;1558;42.700;23.360;2023-02-28T07:14:47;95967.84;;;5.49;100.00
3096;BME280;1558;42.700;23.360;2023-02-28T07:17:15;95962.50;;;5.49;100.00
3096;BME280;1558;42.700;23.360;2023-02-28T07:19:43;95953.63;;;5.54;100.00
3096;BME280;1558;42.700;23.360;2023-02-28T07:22:13;95950.59;;;5.60;100.00
3096;BME280;1558;42.700;23.360;2023-02-28T07:24:41;95960.97;;;5.67;100.00
3096;BME280;1558;42.700;23.360;2023-02-28T07:27:11;95963.75;;;5.80;100.00
3096;BME280;1558;42.700;23.360;2023-02-28T07:29:39;95967.22;;;5.81;100.00
3096;BME280;1558;42.700;23.360;2023-02-28T07:32:07;95974.34;;;5.95;100.00
3096;BME280;1558;42.700;23.360;2023-02-28T07:34:35;95960.94;;;5.95;100.00
3096;BME280;1558;42.700;23.360;2023-02-28T07:37:03;95954.59;;;5.91;100.00
3096;BME280;1558;42.700;23.360;2023-02-28T07:39:31;95961.00;;;6.14;100.00
3096;BME280;1558;42.700;23.360;2023-02-28T07:41:59;95951.06;;;6.14;100.00
3096;BME280;1558;42.700;23.360;2023-02-28T07:44:31;95957.13;;;6.25;100.00
3096;BME280;1558;42.700;23.360;2023-02-28T07:46:59;95917.56;;;5.98;100.00
3096;BME280;1558;42.700;23.360;2023-02-28T07:49:27;95968.78;;;6.34;100.00
3096;BME280;1558;42.700;23.360;2023-02-28T07:51:55;95961.00;;;6.33;100.00
3096;BME280;1558;42.700;23.360;2023-02-28T07:54:23;95958.28;;;6.38;100.00
3096;BME280;1558;42.700;23.360;2023-02-28T07:56:51;95962.34;;;6.54;100.00
3096;BME280;1558;42.700;23.360;2023-02-28T07:59:19;95958.22;;;6.61;100.00
3096;BME280;1558;42.700;23.360;2023-02-28T08:01:48;95953.50;;;6.72;100.00
3096;BME280;1558;42.700;23.360;2023-02-28T08:04:16;95946.19;;;6.77;100.00
3096;BME280;1558;42.700;23.360;2023-02-28T08:06:45;95956.47;;;6.89;100.00
3096;BME280;1558;42.700;23.360;2023-02-28T08:09:14;95954.38;;;7.18;100.00
3096;BME280;1558;42.700;23.360;2023-02-28T08:11:41;95953.16;;;7.29;100.00
3096;BME280;1558;42.700;23.360;2023-02-28T08:14:09;95956.81;;;7.33;100.00
3096;BME280;1558;42.700;23.360;2023-02-28T08:16:37;95959.34;;;7.43;100.00
3096;BME280;1558;42.700;23.360;2023-02-28T08:19:06;95955.69;;;7.53;100.00
3096;BME280;1558;42.700;23.360;2023-02-28T08:21:34;95953.50;;;7.55;100.00
3096;BME280;1558;42.700;23.360;2023-02-28T08:24:02;95951.81;;;7.73;100.00
3096;BME280;1558;42.700;23.360;2023-02-28T08:26:30;95953.13;;;7.89;100.00
3096;BME280;1558;42.700;23.360;2023-02-28T08:28:58;95951.84;;;8.00;100.00
3096;BME280;1558;42.700;23.360;2023-02-28T08:31:27;95942.78;;;8.23;100.00
3096;BME280;1558;42.700;23.360;2023-02-28T08:33:56;95956.50;;;8.49;100.00
3096;BME280;1558;42.700;23.360;2023-02-28T08:36:26;95964.19;;;8.77;100.00
3096;BME280;1558;42.700;23.360;2023-02-28T08:38:56;95954.25;;;8.78;100.00
3096;BME280;1558;42.700;23.360;2023-02-28T08:41:26;95956.75;;;9.10;100.00
3096;BME280;1558;42.700;23.360;2023-02-28T08:43:54;95962.84;;;9.24;100.00
3096;BME280;1558;42.700;23.360;2023-02-28T08:46:23;95956.84;;;9.49;100.00
3096;BME280;1558;42.700;23.360;2023-02-28T08:48:52;95952.19;;;9.41;100.00
3096;BME280;1558;42.700;23.360;2023-02-28T08:51:20;95961.72;;;9.47;100.00
3096;BME280;1558;42.700;23.360;2023-02-28T08:53:57;95934.59;;;9.66;100.00
3096;BME280;1558;42.700;23.360;2023-02-28T08:56:27;95945.69;;;10.04;100.00
3096;BME280;1558;42.700;23.360;2023-02-28T08:58:56;95954.97;;;9.89;100.00
3096;BME280;1558;42.700;23.360;2023-02-28T09:01:26;95967.94;;;9.79;100.00
3096;BME280;1558;42.700;23.360;2023-02-28T09:03:56;95953.06;;;9.81;100.00
3096;BME280;1558;42.700;23.360;2023-02-28T09:06:26;95969.94;;;9.73;100.00
3096;BME280;1558;42.700;23.360;2023-02-28T09:08:57;95969.47;;;9.71;100.00
3096;BME280;1558;42.700;23.360;2023-02-28T09:11:45;95964.91;;;9.80;100.00
3096;BME280;1558;42.700;23.360;2023-02-28T09:14:13;95928.19;;;9.53;100.00
3096;BME280;1558;42.700;23.360;2023-02-28T09:16:43;95952.25;;;9.81;100.00
3096;BME280;1558;42.700;23.360;2023-02-28T09:19:12;95927.56;;;9.87;100.00
3096;BME280;1558;42.700;23.360;2023-02-28T09:21:40;95961.47;;;10.19;100.00
3096;BME280;1558;42.700;23.360;2023-02-28T09:24:09;95949.22;;;10.13;100.00
3096;BME280;1558;42.700;23.360;2023-02-28T09:26:40;95956.44;;;9.95;100.00
3096;BME280;1558;42.700;23.360;2023-02-28T09:29:28;95953.47;;;10.05;100.00
3096;BME280;1558;42.700;23.360;2023-02-28T09:31:56;95940.41;;;10.30;100.00
3096;BME280;1558;42.700;23.360;2023-02-28T09:34:25;95947.28;;;10.53;100.00
3096;BME280;1558;42.700;23.360;2023-02-28T09:36:53;95962.56;;;10.18;100.00
3096;BME280;1558;42.700;23.360;2023-02-28T09:39:23;95954.59;;;10.52;100.00
3096;BME280;1558;42.700;23.360;2023-02-28T09:41:54;95949.03;;;10.57;100.00
3096;BME280;1558;42.700;23.360;2023-02-28T09:44:28;95941.44;;;10.68;100.00
3096;BME280;1558;42.700;23.360;2023-02-28T09:46:59;95955.56;;;10.73;100.00
3096;BME280;1558;42.700;23.360;2023-02-28T09:49:34;95920.78;;;10.55;100.00
3096;BME280;1558;42.700;23.360;2023-02-28T09:52:07;95946.84;;;10.85;100.00
3096;BME280;1558;42.700;23.360;2023-02-28T09:54:38;95932.38;;;11.15;100.00
3096;BME280;1558;42.700;23.360;2023-02-28T09:57:08;95928.50;;;11.50;100.00
3096;BME280;1558;42.700;23.360;2023-02-28T09:59:48;95919.03;;;11.10;100.00
3096;BME280;1558;42.700;23.360;2023-02-28T10:02:37;95912.06;;;11.09;100.00
3096;BME280;1558;42.700;23.360;2023-02-28T10:05:10;95904.91;;;11.30;100.00
3096;BME280;1558;42.700;23.360;2023-02-28T10:07:53;95926.31;;;11.52;100.00
3096;BME280;1558;42.700;23.360;2023-02-28T10:10:28;95896.47;;;11.40;100.00
3096;BME280;1558;42.700;23.360;2023-02-28T10:13:00;95915.97;;;11.46;100.00
3096;BME280;1558;42.700;23.360;2023-02-28T10:15:32;95924.56;;;11.48;100.00
3096;BME280;1558;42.700;23.360;2023-02-28T10:18:04;95931.72;;;11.52;100.00
3096;BME280;1558;42.700;23.360;2023-02-28T10:20:37;95912.16;;;11.47;100.00
3096;BME280;1558;42.700;23.360;2023-02-28T10:23:12;95896.38;;;11.75;100.00
3096;BME280;1558;42.700;23.360;2023-02-28T10:25:48;95888.94;;;12.01;100.00
3096;BME280;1558;42.700;23.360;2023-02-28T10:28:18;95893.09;;;11.98;100.00
3096;BME280;1558;42.700;23.360;2023-02-28T10:30:47;95914.22;;;12.34;100.00
3096;BME280;1558;42.700;23.360;2023-02-28T10:33:19;95901.44;;;12.43;100.00
3096;BME280;1558;42.700;23.360;2023-02-28T10:35:49;95904.66;;;12.66;100.00
3096;BME280;1558;42.700;23.360;2023-02-28T10:38:20;95898.19;;;13.00;100.00
3096;BME280;1558;42.700;23.360;2023-02-28T10:40:50;95893.41;;;12.97;100.00
3096;BME280;1558;42.700;23.360;2023-02-28T10:43:21;95888.66;;;12.93;100.00
3096;BME280;1558;42.700;23.360;2023-02-28T10:45:55;95899.47;;;12.93;100.00
3096;BME280;1558;42.700;23.360;2023-02-28T10:48:34;95864.13;;;12.57;100.00
3096;BME280;1558;42.700;23.360;2023-02-28T10:51:05;95864.78;;;12.54;100.00
3096;BME280;1558;42.700;23.360;2023-02-28T10:53:37;95854.22;;;12.11;100.00
3096;BME280;1558;42.700;23.360;2023-02-28T10:56:27;95877.94;;;12.35;100.00
3096;BME280;1558;42.700;23.360;2023-02-28T10:59:01;95866.78;;;12.16;100.00
3096;BME280;1558;42.700;23.360;2023-02-28T11:01:38;95860.94;;;12.35;100.00
3096;BME280;1558;42.700;23.360;2023-02-28T11:04:23;95850.63;;;12.69;100.00
3096;BME280;1558;42.700;23.360;2023-02-28T11:07:00;95852.09;;;12.87;100.00
3096;BME280;1558;42.700;23.360;2023-02-28T11:09:34;95859.44;;;12.66;100.00
3096;BME280;1558;42.700;23.360;2023-02-28T11:12:06;95845.88;;;12.46;100.00
3096;BME280;1558;42.700;23.360;2023-02-28T11:14:40;95825.38;;;12.45;100.00
3096;BME280;1558;42.700;23.360;2023-02-28T11:17:20;95846.94;;;12.53;100.00
3096;BME280;1558;42.700;23.360;2023-02-28T11:19:51;95810.94;;;12.41;100.00
3096;BME280;1558;42.700;23.360;2023-02-28T11:22:23;95827.41;;;12.68;100.00
3096;BME280;1558;42.700;23.360;2023-02-28T11:24:58;95829.38;;;12.39;100.00
3096;BME280;1558;42.700;23.360;2023-02-28T11:27:43;95837.91;;;12.29;100.00
3096;BME280;1558;42.700;23.360;2023-02-28T11:30:32;95845.75;;;12.83;100.00
3096;BME280;1558;42.700;23.360;2023-02-28T11:33:01;95834.09;;;13.04;100.00
3096;BME280;1558;42.700;23.360;2023-02-28T11:35:48;95831.56;;;13.19;100.00
3096;BME280;1558;42.700;23.360;2023-02-28T11:38:17;95841.75;;;13.22;100.00
3096;BME280;1558;42.700;23.360;2023-02-28T11:40:50;95832.00;;;12.88;100.00
3096;BME280;1558;42.700;23.360;2023-02-28T11:43:30;95812.09;;;12.72;100.00
3096;BME280;1558;42.700;23.360;2023-02-28T11:46:16;95841.84;;;12.72;100.00
3096;BME280;1558;42.700;23.360;2023-02-28T11:48:52;95842.41;;;12.45;100.00
3096;BME280;1558;42.700;23.360;2023-02-28T11:51:28;95820.16;;;12.19;100.00
3096;BME280;1558;42.700;23.360;2023-02-28T11:54:21;95828.31;;;12.72;100.00
3096;BME280;1558;42.700;23.360;2023-02-28T11:56:55;95819.19;;;12.98;100.00
3096;BME280;1558;42.700;23.360;2023-02-28T11:59:38;95838.47;;;12.96;100.00
3096;BME280;1558;42.700;23.360;2023-02-28T12:02:23;95817.69;;;12.88;100.00
3096;BME280;1558;42.700;23.360;2023-02-28T12:05:01;95823.78;;;13.18;100.00
3096;BME280;1558;42.700;23.360;2023-02-28T12:07:46;95803.38;;;13.20;99.36
3096;BME280;1558;42.700;23.360;2023-02-28T12:10:22;95761.53;;;12.64;99.08
3096;BME280;1558;42.700;23.360;2023-02-28T12:13:06;95786.56;;;12.61;100.00
3096;BME280;1558;42.700;23.360;2023-02-28T12:15:50;95825.81;;;12.67;100.00
3096;BME280;1558;42.700;23.360;2023-02-28T12:18:39;95824.75;;;12.80;100.00
3096;BME280;1558;42.700;23.360;2023-02-28T12:21:17;95822.97;;;12.84;100.00
3096;BME280;1558;42.700;23.360;2023-02-28T12:23:56;95827.75;;;12.26;100.00
3096;BME280;1558;42.700;23.360;2023-02-28T12:26:34;95814.84;;;12.43;100.00
3096;BME280;1558;42.700;23.360;2023-02-28T12:29:10;95842.97;;;12.30;100.00
3096;BME280;1558;42.700;23.360;2023-02-28T12:31:45;95814.66;;;12.28;100.00
3096;BME280;1558;42.700;23.360;2023-02-28T12:34:18;95828.81;;;12.33;100.00
3096;BME280;1558;42.700;23.360;2023-02-28T12:36:48;95827.38;;;12.06;100.00
3096;BME280;1558;42.700;23.360;2023-02-28T12:39:20;95780.44;;;12.11;100.00
3096;BME280;1558;42.700;23.360;2023-02-28T12:41:54;95823.84;;;12.35;100.00
3096;BME280;1558;42.700;23.360;2023-02-28T12:44:28;95799.88;;;12.04;100.00
3096;BME280;1558;42.700;23.360;2023-02-28T12:47:02;95805.44;;;11.79;100.00
3096;BME280;1558;42.700;23.360;2023-02-28T12:49:34;95768.59;;;11.66;100.00
3096;BME280;1558;42.700;23.360;2023-02-28T12:52:05;95792.75;;;11.71;100.00
3096;BME280;1558;42.700;23.360;2023-02-28T12:54:41;95807.81;;;11.80;100.00
3096;BME280;1558;42.700;23.360;2023-02-28T12:57:18;95757.09;;;11.48;100.00
3096;BME280;1558;42.700;23.360;2023-02-28T12:59:53;95795.28;;;11.76;100.00
3096;BME280;1558;42.700;23.360;2023-02-28T13:02:51;95805.31;;;11.96;100.00
3096;BME280;1558;42.700;23.360;2023-02-28T13:05:50;95797.69;;;11.98;100.00
3096;BME280;1558;42.700;23.360;2023-02-28T13:08:46;95785.09;;;12.02;100.00
3096;BME280;1558;42.700;23.360;2023-02-28T13:11:27;95805.94;;;12.22;100.00
3096;BME280;1558;42.700;23.360;2023-02-28T13:13:58;95796.59;;;12.40;100.00
3096;BME280;1558;42.700;23.360;2023-02-28T13:16:27;95797.56;;;12.15;100.00
3096;BME280;1558;42.700;23.360;2023-02-28T13:19:10;95804.16;;;12.05;100.00
3096;BME280;1558;42.700;23.360;2023-02-28T13:21:42;95800.06;;;11.99;100.00
3096;BME280;1558;42.700;23.360;2023-02-28T13:27:24;95798.72;;;11.85;100.00
3096;BME280;1558;42.700;23.360;2023-02-28T13:29:53;95761.41;;;11.78;100.00
3096;BME280;1558;42.700;23.360;2023-02-28T13:32:42;95786.09;;;11.68;100.00
3096;BME280;1558;42.700;23.360;2023-02-28T13:35:35;95780.34;;;11.70;100.00
3096;BME280;1558;42.700;23.360;2023-02-28T13:38:16;95798.81;;;11.68;100.00
3096;BME280;1558;42.700;23.360;2023-02-28T13:40:45;95793.31;;;11.47;100.00
3096;BME280;1558;42.700;23.360;2023-02-28T13:43:16;95790.09;;;11.53;100.00
3096;BME280;1558;42.700;23.360;2023-02-28T13:46:11;95720.59;;;11.04;100.00
3096;BME280;1558;42.700;23.360;2023-02-28T13:48:40;95783.59;;;11.54;100.00
3096;BME280;1558;42.700;23.360;2023-02-28T13:51:39;95773.88;;;11.62;100.00